sensor_id;sensor_type;location;lat;lon;timestamp;P1;durP1;ratioP1;P2;durP2;ratioP2
65558;SDS011;52203;51.998;5.140;2023-01-01T00:01:43;20.77;;;10.20;;
65558;SDS011;52203;51.998;5.140;2023-01-01T00:04:13;18.55;;;10.75;;
65558;SDS011;52203;51.998;5.140;2023-01-01T00:06:40;18.55;;;10.45;;
65558;SDS011;52203;51.998;5.140;2023-01-01T00:09:06;18.95;;;10.75;;
65558;SDS011;52203;51.998;5.140;2023-01-01T00:11:50;16.08;;;8.88;;
65558;SDS011;52203;51.998;5.140;2023-01-01T00:14:16;16.85;;;9.18;;
65558;SDS011;52203;51.998;5.140;2023-01-01T00:16:43;18.67;;;9.38;;
65558;SDS011;52203;51.998;5.140;2023-01-01T00:19:08;15.95;;;8.90;;
65558;SDS011;52203;51.998;5.140;2023-01-01T00:21:34;18.38;;;9.73;;
65558;SDS011;52203;51.998;5.140;2023-01-01T00:24:00;16.98;;;9.30;;
65558;SDS011;52203;51.998;5.140;2023-01-01T00:26:26;15.15;;;8.90;;
65558;SDS011;52203;51.998;5.140;2023-01-01T00:28:52;16.90;;;9.38;;
65558;SDS011;52203;51.998;5.140;2023-01-01T00:31:18;16.10;;;9.27;;
65558;SDS011;52203;51.998;5.140;2023-01-01T00:33:48;14.50;;;9.20;;
65558;SDS011;52203;51.998;5.140;2023-01-01T00:36:15;15.52;;;8.95;;
65558;SDS011;52203;51.998;5.140;2023-01-01T00:38:43;17.23;;;9.18;;
65558;SDS011;52203;51.998;5.140;2023-01-01T00:41:09;18.67;;;8.88;;
65558;SDS011;52203;51.998;5.140;2023-01-01T00:43:36;14.25;;;7.97;;
65558;SDS011;52203;51.998;5.140;2023-01-01T00:46:02;16.23;;;9.15;;
65558;SDS011;52203;51.998;5.140;2023-01-01T00:48:28;16.17;;;7.93;;
65558;SDS011;52203;51.998;5.140;2023-01-01T00:50:54;13.02;;;8.07;;
65558;SDS011;52203;51.998;5.140;2023-01-01T00:53:20;13.85;;;7.65;;
65558;SDS011;52203;51.998;5.140;2023-01-01T00:55:46;13.88;;;7.47;;
65558;SDS011;52203;51.998;5.140;2023-01-01T00:58:14;14.43;;;7.25;;
65558;SDS011;52203;51.998;5.140;2023-01-01T01:00:40;13.85;;;7.20;;
65558;SDS011;52203;51.998;5.140;2023-01-01T01:03:06;14.48;;;7.32;;
65558;SDS011;52203;51.998;5.140;2023-01-01T01:05:32;14.32;;;6.32;;
65558;SDS011;52203;51.998;5.140;2023-01-01T01:08:01;14.13;;;6.85;;
65558;SDS011;52203;51.998;5.140;2023-01-01T01:10:26;11.38;;;6.53;;
65558;SDS011;52203;51.998;5.140;2023-01-01T01:12:52;14.10;;;6.32;;
65558;SDS011;52203;51.998;5.140;2023-01-01T01:15:18;11.77;;;6.70;;
65558;SDS011;52203;51.998;5.140;2023-01-01T01:17:44;11.45;;;5.68;;
65558;SDS011;52203;51.998;5.140;2023-01-01T01:20:10;13.75;;;5.85;;
65558;SDS011;52203;51.998;5.140;2023-01-01T01:22:36;12.55;;;5.80;;
65558;SDS011;52203;51.998;5.140;2023-01-01T01:25:03;7.13;;;4.47;;
65558;SDS011;52203;51.998;5.140;2023-01-01T01:27:29;8.50;;;4.90;;
65558;SDS011;52203;51.998;5.140;2023-01-01T01:29:54;11.32;;;5.00;;
65558;SDS011;52203;51.998;5.140;2023-01-01T01:32:20;9.98;;;5.03;;
65558;SDS011;52203;51.998;5.140;2023-01-01T01:34:45;12.38;;;4.78;;
65558;SDS011;52203;51.998;5.140;2023-01-01T01:37:12;10.65;;;4.65;;
65558;SDS011;52203;51.998;5.140;2023-01-01T01:39:37;12.07;;;4.80;;
65558;SDS011;52203;51.998;5.140;2023-01-01T01:42:03;7.97;;;4.47;;
65558;SDS011;52203;51.998;5.140;2023-01-01T01:47:35;9.13;;;4.20;;
65558;SDS011;52203;51.998;5.140;2023-01-01T01:50:03;9.20;;;4.22;;
65558;SDS011;52203;51.998;5.140;2023-01-01T01:52:31;7.85;;;3.90;;
65558;SDS011;52203;51.998;5.140;2023-01-01T01:54:59;10.90;;;4.05;;
65558;SDS011;52203;51.998;5.140;2023-01-01T01:57:27;6.97;;;4.03;;
65558;SDS011;52203;51.998;5.140;2023-01-01T01:59:54;8.95;;;4.57;;
65558;SDS011;52203;51.998;5.140;2023-01-01T02:02:22;8.55;;;3.90;;
65558;SDS011;52203;51.998;5.140;2023-01-01T02:04:56;7.13;;;3.50;;
65558;SDS011;52203;51.998;5.140;2023-01-01T02:07:23;8.90;;;3.88;;
65558;SDS011;52203;51.998;5.140;2023-01-01T02:09:50;10.52;;;3.63;;
65558;SDS011;52203;51.998;5.140;2023-01-01T02:12:15;8.27;;;3.60;;
65558;SDS011;52203;51.998;5.140;2023-01-01T02:14:41;6.70;;;3.28;;
65558;SDS011;52203;51.998;5.140;2023-01-01T02:17:17;8.25;;;3.25;;
65558;SDS011;52203;51.998;5.140;2023-01-01T02:25:04;11.35;;;3.28;;
65558;SDS011;52203;51.998;5.140;2023-01-01T02:30:36;6.00;;;3.33;;
65558;SDS011;52203;51.998;5.140;2023-01-01T02:33:06;7.60;;;3.15;;
65558;SDS011;52203;51.998;5.140;2023-01-01T02:35:39;7.53;;;3.22;;
65558;SDS011;52203;51.998;5.140;2023-01-01T02:38:10;6.28;;;3.58;;
65558;SDS011;52203;51.998;5.140;2023-01-01T02:40:43;8.35;;;3.22;;
65558;SDS011;52203;51.998;5.140;2023-01-01T02:43:11;7.93;;;3.20;;
65558;SDS011;52203;51.998;5.140;2023-01-01T02:45:37;7.53;;;2.90;;
65558;SDS011;52203;51.998;5.140;2023-01-01T02:48:06;6.15;;;3.05;;
65558;SDS011;52203;51.998;5.140;2023-01-01T02:50:53;8.52;;;2.92;;
65558;SDS011;52203;51.998;5.140;2023-01-01T02:56:01;6.68;;;2.85;;
65558;SDS011;52203;51.998;5.140;2023-01-01T02:58:51;6.67;;;3.87;;
65558;SDS011;52203;51.998;5.140;2023-01-01T03:10:18;8.18;;;2.45;;
65558;SDS011;52203;51.998;5.140;2023-01-01T03:15:58;3.85;;;2.13;;
65558;SDS011;52203;51.998;5.140;2023-01-01T03:18:34;6.50;;;2.20;;
65558;SDS011;52203;51.998;5.140;2023-01-01T03:21:05;8.55;;;2.80;;
65558;SDS011;52203;51.998;5.140;2023-01-01T03:23:36;8.65;;;2.90;;
65558;SDS011;52203;51.998;5.140;2023-01-01T03:26:07;6.32;;;2.33;;
65558;SDS011;52203;51.998;5.140;2023-01-01T03:28:57;5.50;;;2.42;;
65558;SDS011;52203;51.998;5.140;2023-01-01T03:31:24;4.07;;;2.20;;
65558;SDS011;52203;51.998;5.140;2023-01-01T03:34:00;6.90;;;2.60;;
65558;SDS011;52203;51.998;5.140;2023-01-01T03:36:36;5.93;;;2.58;;
65558;SDS011;52203;51.998;5.140;2023-01-01T03:39:10;5.28;;;2.30;;
65558;SDS011;52203;51.998;5.140;2023-01-01T03:46:56;6.75;;;2.10;;
65558;SDS011;52203;51.998;5.140;2023-01-01T03:49:22;4.53;;;2.25;;
65558;SDS011;52203;51.998;5.140;2023-01-01T04:00:02;4.72;;;2.10;;
65558;SDS011;52203;51.998;5.140;2023-01-01T04:02:32;5.25;;;2.42;;
65558;SDS011;52203;51.998;5.140;2023-01-01T04:05:01;5.05;;;2.42;;
65558;SDS011;52203;51.998;5.140;2023-01-01T04:07:31;4.68;;;2.40;;
65558;SDS011;52203;51.998;5.140;2023-01-01T04:09:59;5.35;;;2.38;;
65558;SDS011;52203;51.998;5.140;2023-01-01T04:12:26;5.80;;;2.13;;
65558;SDS011;52203;51.998;5.140;2023-01-01T04:14:53;3.60;;;1.80;;
65558;SDS011;52203;51.998;5.140;2023-01-01T04:17:19;7.53;;;2.38;;
65558;SDS011;52203;51.998;5.140;2023-01-01T04:19:44;10.10;;;2.30;;
65558;SDS011;52203;51.998;5.140;2023-01-01T04:22:10;5.22;;;2.17;;
65558;SDS011;52203;51.998;5.140;2023-01-01T04:24:35;5.75;;;2.35;;
65558;SDS011;52203;51.998;5.140;2023-01-01T04:27:01;6.10;;;2.03;;
65558;SDS011;52203;51.998;5.140;2023-01-01T04:29:27;5.47;;;2.17;;
65558;SDS011;52203;51.998;5.140;2023-01-01T04:31:52;5.05;;;2.28;;
65558;SDS011;52203;51.998;5.140;2023-01-01T04:34:18;5.43;;;2.28;;
65558;SDS011;52203;51.998;5.140;2023-01-01T04:36:43;7.00;;;2.13;;
65558;SDS011;52203;51.998;5.140;2023-01-01T04:39:09;5.53;;;2.50;;
65558;SDS011;52203;51.998;5.140;2023-01-01T04:41:35;8.07;;;2.03;;
65558;SDS011;52203;51.998;5.140;2023-01-01T04:44:00;5.22;;;1.88;;
65558;SDS011;52203;51.998;5.140;2023-01-01T04:46:26;7.30;;;2.17;;
65558;SDS011;52203;51.998;5.140;2023-01-01T04:48:52;5.20;;;2.13;;
65558;SDS011;52203;51.998;5.140;2023-01-01T04:51:18;4.95;;;2.60;;
65558;SDS011;52203;51.998;5.140;2023-01-01T04:53:45;6.93;;;1.98;;
65558;SDS011;52203;51.998;5.140;2023-01-01T04:56:15;4.03;;;1.95;;
65558;SDS011;52203;51.998;5.140;2023-01-01T04:58:43;7.28;;;2.17;;
65558;SDS011;52203;51.998;5.140;2023-01-01T05:04:06;5.05;;;1.85;;
65558;SDS011;52203;51.998;5.140;2023-01-01T05:06:36;4.30;;;2.20;;
65558;SDS011;52203;51.998;5.140;2023-01-01T05:09:01;4.38;;;1.98;;
65558;SDS011;52203;51.998;5.140;2023-01-01T05:11:28;7.20;;;1.98;;
65558;SDS011;52203;51.998;5.140;2023-01-01T05:13:55;6.65;;;1.80;;
65558;SDS011;52203;51.998;5.140;2023-01-01T05:16:25;5.20;;;1.83;;
65558;SDS011;52203;51.998;5.140;2023-01-01T05:18:53;3.97;;;1.95;;
65558;SDS011;52203;51.998;5.140;2023-01-01T05:21:23;3.80;;;1.83;;
65558;SDS011;52203;51.998;5.140;2023-01-01T05:23:55;4.47;;;1.90;;
65558;SDS011;52203;51.998;5.140;2023-01-01T05:26:24;4.60;;;2.00;;
65558;SDS011;52203;51.998;5.140;2023-01-01T05:28:54;5.22;;;2.40;;
65558;SDS011;52203;51.998;5.140;2023-01-01T05:31:21;4.55;;;1.80;;
65558;SDS011;52203;51.998;5.140;2023-01-01T05:33:48;6.05;;;1.80;;
65558;SDS011;52203;51.998;5.140;2023-01-01T05:36:15;5.68;;;2.63;;
65558;SDS011;52203;51.998;5.140;2023-01-01T05:38:43;6.20;;;1.80;;
65558;SDS011;52203;51.998;5.140;2023-01-01T05:41:09;3.97;;;2.10;;
65558;SDS011;52203;51.998;5.140;2023-01-01T05:43:37;3.25;;;1.77;;
65558;SDS011;52203;51.998;5.140;2023-01-01T05:46:04;4.10;;;1.42;;
65558;SDS011;52203;51.998;5.140;2023-01-01T05:48:31;6.25;;;1.90;;
65558;SDS011;52203;51.998;5.140;2023-01-01T05:51:03;5.50;;;1.92;;
65558;SDS011;52203;51.998;5.140;2023-01-01T05:53:30;3.78;;;1.80;;
65558;SDS011;52203;51.998;5.140;2023-01-01T05:55:56;4.50;;;2.00;;
65558;SDS011;52203;51.998;5.140;2023-01-01T05:58:22;7.93;;;2.08;;
65558;SDS011;52203;51.998;5.140;2023-01-01T06:00:48;4.93;;;1.52;;
65558;SDS011;52203;51.998;5.140;2023-01-01T06:03:14;4.55;;;1.88;;
65558;SDS011;52203;51.998;5.140;2023-01-01T06:05:39;5.65;;;1.83;;
65558;SDS011;52203;51.998;5.140;2023-01-01T06:08:05;3.15;;;1.92;;
65558;SDS011;52203;51.998;5.140;2023-01-01T06:10:30;3.72;;;1.50;;
65558;SDS011;52203;51.998;5.140;2023-01-01T06:12:56;6.18;;;1.58;;
65558;SDS011;52203;51.998;5.140;2023-01-01T06:15:23;7.47;;;1.83;;
65558;SDS011;52203;51.998;5.140;2023-01-01T06:17:52;4.15;;;1.20;;
65558;SDS011;52203;51.998;5.140;2023-01-01T06:20:18;4.75;;;1.60;;
65558;SDS011;52203;51.998;5.140;2023-01-01T06:22:45;4.60;;;1.40;;
65558;SDS011;52203;51.998;5.140;2023-01-01T06:25:11;3.15;;;1.30;;
65558;SDS011;52203;51.998;5.140;2023-01-01T06:27:37;2.70;;;1.15;;
65558;SDS011;52203;51.998;5.140;2023-01-01T06:30:03;3.80;;;1.50;;
65558;SDS011;52203;51.998;5.140;2023-01-01T06:32:30;3.58;;;1.50;;
65558;SDS011;52203;51.998;5.140;2023-01-01T06:34:56;4.20;;;1.17;;
65558;SDS011;52203;51.998;5.140;2023-01-01T06:37:22;3.03;;;1.20;;
65558;SDS011;52203;51.998;5.140;2023-01-01T06:39:48;3.15;;;1.08;;
65558;SDS011;52203;51.998;5.140;2023-01-01T06:42:13;3.85;;;1.50;;
65558;SDS011;52203;51.998;5.140;2023-01-01T06:44:39;6.40;;;1.20;;
65558;SDS011;52203;51.998;5.140;2023-01-01T06:47:05;3.35;;;1.00;;
65558;SDS011;52203;51.998;5.140;2023-01-01T06:49:31;4.38;;;1.27;;
65558;SDS011;52203;51.998;5.140;2023-01-01T06:51:56;3.70;;;1.15;;
65558;SDS011;52203;51.998;5.140;2023-01-01T06:54:22;3.60;;;1.10;;
65558;SDS011;52203;51.998;5.140;2023-01-01T06:56:47;3.15;;;1.50;;
65558;SDS011;52203;51.998;5.140;2023-01-01T06:59:14;2.28;;;1.10;;
65558;SDS011;52203;51.998;5.140;2023-01-01T07:01:40;6.00;;;1.25;;
65558;SDS011;52203;51.998;5.140;2023-01-01T07:04:09;2.92;;;1.10;;
65558;SDS011;52203;51.998;5.140;2023-01-01T07:06:36;3.22;;;1.10;;
65558;SDS011;52203;51.998;5.140;2023-01-01T07:09:03;4.53;;;1.30;;
65558;SDS011;52203;51.998;5.140;2023-01-01T07:11:29;2.90;;;0.90;;
65558;SDS011;52203;51.998;5.140;2023-01-01T07:13:55;4.20;;;1.20;;
65558;SDS011;52203;51.998;5.140;2023-01-01T07:16:21;3.83;;;1.00;;
65558;SDS011;52203;51.998;5.140;2023-01-01T07:18:48;3.05;;;1.13;;
65558;SDS011;52203;51.998;5.140;2023-01-01T07:21:30;3.83;;;1.10;;
65558;SDS011;52203;51.998;5.140;2023-01-01T07:24:02;5.13;;;1.48;;
65558;SDS011;52203;51.998;5.140;2023-01-01T07:26:29;5.80;;;1.15;;
65558;SDS011;52203;51.998;5.140;2023-01-01T07:28:56;2.42;;;1.00;;
65558;SDS011;52203;51.998;5.140;2023-01-01T07:31:22;2.38;;;1.17;;
65558;SDS011;52203;51.998;5.140;2023-01-01T07:33:48;5.97;;;1.38;;
65558;SDS011;52203;51.998;5.140;2023-01-01T07:36:14;5.57;;;1.10;;
65558;SDS011;52203;51.998;5.140;2023-01-01T07:38:39;2.90;;;1.05;;
65558;SDS011;52203;51.998;5.140;2023-01-01T07:41:05;2.08;;;0.80;;
65558;SDS011;52203;51.998;5.140;2023-01-01T07:43:31;3.35;;;1.00;;
65558;SDS011;52203;51.998;5.140;2023-01-01T07:45:57;3.35;;;1.20;;
65558;SDS011;52203;51.998;5.140;2023-01-01T07:48:23;3.28;;;0.80;;
65558;SDS011;52203;51.998;5.140;2023-01-01T07:50:49;3.47;;;1.25;;
65558;SDS011;52203;51.998;5.140;2023-01-01T07:53:15;3.63;;;1.02;;
65558;SDS011;52203;51.998;5.140;2023-01-01T07:55:40;2.47;;;0.90;;
65558;SDS011;52203;51.998;5.140;2023-01-01T07:58:06;2.92;;;0.80;;
65558;SDS011;52203;51.998;5.140;2023-01-01T08:00:31;5.85;;;1.20;;
65558;SDS011;52203;51.998;5.140;2023-01-01T08:02:57;4.38;;;1.00;;
65558;SDS011;52203;51.998;5.140;2023-01-01T08:05:23;2.42;;;0.88;;
65558;SDS011;52203;51.998;5.140;2023-01-01T08:07:49;2.15;;;0.95;;
65558;SDS011;52203;51.998;5.140;2023-01-01T08:10:15;3.72;;;1.00;;
65558;SDS011;52203;51.998;5.140;2023-01-01T08:12:42;2.65;;;0.93;;
65558;SDS011;52203;51.998;5.140;2023-01-01T08:15:08;4.55;;;1.00;;
65558;SDS011;52203;51.998;5.140;2023-01-01T08:17:34;4.07;;;1.00;;
65558;SDS011;52203;51.998;5.140;2023-01-01T08:20:00;3.20;;;1.02;;
65558;SDS011;52203;51.998;5.140;2023-01-01T08:22:26;4.32;;;1.10;;
65558;SDS011;52203;51.998;5.140;2023-01-01T08:24:52;3.40;;;1.20;;
65558;SDS011;52203;51.998;5.140;2023-01-01T08:27:17;2.30;;;0.70;;
65558;SDS011;52203;51.998;5.140;2023-01-01T08:29:43;2.55;;;0.98;;
65558;SDS011;52203;51.998;5.140;2023-01-01T08:32:09;5.35;;;0.98;;
65558;SDS011;52203;51.998;5.140;2023-01-01T08:34:38;3.78;;;1.08;;
65558;SDS011;52203;51.998;5.140;2023-01-01T08:37:04;4.03;;;1.00;;
65558;SDS011;52203;51.998;5.140;2023-01-01T08:39:30;2.83;;;0.90;;
65558;SDS011;52203;51.998;5.140;2023-01-01T08:41:56;2.53;;;0.80;;
65558;SDS011;52203;51.998;5.140;2023-01-01T08:44:22;2.75;;;0.90;;
65558;SDS011;52203;51.998;5.140;2023-01-01T08:46:47;3.95;;;0.95;;
65558;SDS011;52203;51.998;5.140;2023-01-01T08:49:13;1.92;;;0.82;;
65558;SDS011;52203;51.998;5.140;2023-01-01T08:51:39;3.85;;;1.05;;
65558;SDS011;52203;51.998;5.140;2023-01-01T08:54:05;3.28;;;1.08;;
65558;SDS011;52203;51.998;5.140;2023-01-01T08:56:30;4.30;;;1.30;;
65558;SDS011;52203;51.998;5.140;2023-01-01T08:58:56;1.98;;;0.77;;
65558;SDS011;52203;51.998;5.140;2023-01-01T09:01:21;2.70;;;1.25;;
65558;SDS011;52203;51.998;5.140;2023-01-01T09:03:50;3.67;;;0.80;;
65558;SDS011;52203;51.998;5.140;2023-01-01T09:06:15;2.78;;;0.98;;
65558;SDS011;52203;51.998;5.140;2023-01-01T09:08:41;4.60;;;0.95;;
65558;SDS011;52203;51.998;5.140;2023-01-01T09:11:07;2.58;;;1.00;;
65558;SDS011;52203;51.998;5.140;2023-01-01T09:13:44;2.28;;;1.02;;
65558;SDS011;52203;51.998;5.140;2023-01-01T09:16:09;2.85;;;1.10;;
65558;SDS011;52203;51.998;5.140;2023-01-01T09:18:35;3.67;;;1.10;;
65558;SDS011;52203;51.998;5.140;2023-01-01T09:21:00;3.33;;;0.90;;
65558;SDS011;52203;51.998;5.140;2023-01-01T09:23:26;2.10;;;0.90;;
65558;SDS011;52203;51.998;5.140;2023-01-01T09:25:51;4.70;;;1.15;;
65558;SDS011;52203;51.998;5.140;2023-01-01T09:28:17;4.35;;;1.00;;
65558;SDS011;52203;51.998;5.140;2023-01-01T09:30:42;3.58;;;0.90;;
65558;SDS011;52203;51.998;5.140;2023-01-01T09:33:08;6.18;;;1.25;;
65558;SDS011;52203;51.998;5.140;2023-01-01T09:35:33;2.65;;;1.00;;
65558;SDS011;52203;51.998;5.140;2023-01-01T09:38:02;3.90;;;1.20;;
65558;SDS011;52203;51.998;5.140;2023-01-01T09:40:52;9.50;;;1.10;;
65558;SDS011;52203;51.998;5.140;2023-01-01T09:46:14;4.13;;;1.10;;
65558;SDS011;52203;51.998;5.140;2023-01-01T09:48:50;3.58;;;1.00;;
65558;SDS011;52203;51.998;5.140;2023-01-01T09:51:20;3.22;;;1.00;;
65558;SDS011;52203;51.998;5.140;2023-01-01T09:53:53;2.60;;;1.00;;
65558;SDS011;52203;51.998;5.140;2023-01-01T09:56:24;4.20;;;1.33;;
65558;SDS011;52203;51.998;5.140;2023-01-01T09:58:51;4.63;;;1.20;;
65558;SDS011;52203;51.998;5.140;2023-01-01T10:06:50;5.00;;;1.00;;
65558;SDS011;52203;51.998;5.140;2023-01-01T10:09:40;3.60;;;1.10;;
65558;SDS011;52203;51.998;5.140;2023-01-01T10:17:54;4.45;;;0.90;;
65558;SDS011;52203;51.998;5.140;2023-01-01T10:20:35;4.07;;;1.02;;
65558;SDS011;52203;51.998;5.140;2023-01-01T10:23:13;3.03;;;0.88;;
65558;SDS011;52203;51.998;5.140;2023-01-01T10:25:51;2.70;;;0.82;;
65558;SDS011;52203;51.998;5.140;2023-01-01T10:28:20;4.13;;;0.90;;
65558;SDS011;52203;51.998;5.140;2023-01-01T10:30:53;4.57;;;0.80;;
65558;SDS011;52203;51.998;5.140;2023-01-01T10:33:38;3.28;;;0.93;;
65558;SDS011;52203;51.998;5.140;2023-01-01T10:36:04;3.22;;;0.90;;
65558;SDS011;52203;51.998;5.140;2023-01-01T10:38:30;4.57;;;1.10;;
65558;SDS011;52203;51.998;5.140;2023-01-01T10:41:10;7.25;;;1.40;;
65558;SDS011;52203;51.998;5.140;2023-01-01T10:43:37;10.82;;;1.48;;
65558;SDS011;52203;51.998;5.140;2023-01-01T10:46:03;3.25;;;1.30;;
65558;SDS011;52203;51.998;5.140;2023-01-01T10:48:30;5.93;;;1.30;;
65558;SDS011;52203;51.998;5.140;2023-01-01T10:51:00;6.88;;;1.63;;
65558;SDS011;52203;51.998;5.140;2023-01-01T11:03:37;6.05;;;1.15;;
65558;SDS011;52203;51.998;5.140;2023-01-01T11:06:21;5.50;;;1.50;;
65558;SDS011;52203;51.998;5.140;2023-01-01T11:08:48;4.72;;;1.00;;
65558;SDS011;52203;51.998;5.140;2023-01-01T11:11:58;5.13;;;1.08;;
65558;SDS011;52203;51.998;5.140;2023-01-01T11:14:11;5.00;;;1.15;;
65558;SDS011;52203;51.998;5.140;2023-01-01T11:16:48;3.92;;;1.00;;
65558;SDS011;52203;51.998;5.140;2023-01-01T11:19:26;3.55;;;0.95;;
65558;SDS011;52203;51.998;5.140;2023-01-01T11:21:55;3.88;;;1.02;;
65558;SDS011;52203;51.998;5.140;2023-01-01T11:24:25;5.07;;;1.17;;
65558;SDS011;52203;51.998;5.140;2023-01-01T11:26:53;5.18;;;1.15;;
65558;SDS011;52203;51.998;5.140;2023-01-01T11:29:36;2.83;;;0.90;;
65558;SDS011;52203;51.998;5.140;2023-01-01T11:32:01;7.28;;;1.48;;
65558;SDS011;52203;51.998;5.140;2023-01-01T11:34:37;3.80;;;1.10;;
65558;SDS011;52203;51.998;5.140;2023-01-01T11:39:54;5.57;;;1.30;;
65558;SDS011;52203;51.998;5.140;2023-01-01T11:42:22;8.20;;;1.80;;
65558;SDS011;52203;51.998;5.140;2023-01-01T11:44:57;5.18;;;1.30;;
65558;SDS011;52203;51.998;5.140;2023-01-01T11:47:43;3.28;;;1.10;;
65558;SDS011;52203;51.998;5.140;2023-01-01T11:52:39;6.43;;;1.63;;
65558;SDS011;52203;51.998;5.140;2023-01-01T11:55:18;7.70;;;1.85;;
65558;SDS011;52203;51.998;5.140;2023-01-01T12:00:48;3.38;;;1.20;;
65558;SDS011;52203;51.998;5.140;2023-01-01T12:05:51;3.83;;;1.63;;
65558;SDS011;52203;51.998;5.140;2023-01-01T12:08:25;4.22;;;1.05;;
65558;SDS011;52203;51.998;5.140;2023-01-01T12:10:59;4.35;;;1.63;;
65558;SDS011;52203;51.998;5.140;2023-01-01T12:13:43;5.68;;;1.50;;
65558;SDS011;52203;51.998;5.140;2023-01-01T12:16:17;4.50;;;1.73;;
65558;SDS011;52203;51.998;5.140;2023-01-01T12:18:47;5.07;;;1.50;;
65558;SDS011;52203;51.998;5.140;2023-01-01T12:21:24;3.03;;;1.20;;
65558;SDS011;52203;51.998;5.140;2023-01-01T12:23:52;2.83;;;1.30;;
65558;SDS011;52203;51.998;5.140;2023-01-01T12:35:13;5.25;;;1.27;;
65558;SDS011;52203;51.998;5.140;2023-01-01T12:48:26;3.47;;;1.25;;
65558;SDS011;52203;51.998;5.140;2023-01-01T12:56:45;4.28;;;1.10;;
65558;SDS011;52203;51.998;5.140;2023-01-01T12:59:28;5.10;;;1.35;;
65558;SDS011;52203;51.998;5.140;2023-01-01T13:02:01;4.28;;;1.10;;
65558;SDS011;52203;51.998;5.140;2023-01-01T13:04:34;4.38;;;1.23;;
65558;SDS011;52203;51.998;5.140;2023-01-01T13:07:01;3.17;;;1.05;;
65558;SDS011;52203;51.998;5.140;2023-01-01T13:09:32;6.05;;;1.40;;
65558;SDS011;52203;51.998;5.140;2023-01-01T13:12:07;3.70;;;1.20;;
65558;SDS011;52203;51.998;5.140;2023-01-01T13:14:37;4.87;;;1.47;;
65558;SDS011;52203;51.998;5.140;2023-01-01T13:17:16;6.88;;;1.27;;
65558;SDS011;52203;51.998;5.140;2023-01-01T13:19:42;3.90;;;1.20;;
65558;SDS011;52203;51.998;5.140;2023-01-01T13:38:44;4.53;;;1.20;;
65558;SDS011;52203;51.998;5.140;2023-01-01T13:46:44;4.90;;;1.45;;
65558;SDS011;52203;51.998;5.140;2023-01-01T13:49:48;4.57;;;1.02;;
65558;SDS011;52203;51.998;5.140;2023-01-01T13:55:27;4.05;;;1.10;;
65558;SDS011;52203;51.998;5.140;2023-01-01T14:01:11;4.57;;;1.00;;
65558;SDS011;52203;51.998;5.140;2023-01-01T14:03:53;4.00;;;1.27;;
65558;SDS011;52203;51.998;5.140;2023-01-01T14:08:46;2.30;;;1.05;;
65558;SDS011;52203;51.998;5.140;2023-01-01T14:11:26;2.00;;;0.90;;
65558;SDS011;52203;51.998;5.140;2023-01-01T14:13:53;2.65;;;0.90;;
65558;SDS011;52203;51.998;5.140;2023-01-01T14:16:18;3.63;;;1.13;;
65558;SDS011;52203;51.998;5.140;2023-01-01T14:18:48;3.20;;;1.00;;
65558;SDS011;52203;51.998;5.140;2023-01-01T14:21:18;3.20;;;1.30;;
65558;SDS011;52203;51.998;5.140;2023-01-01T14:23:47;4.15;;;1.30;;
65558;SDS011;52203;51.998;5.140;2023-01-01T14:26:17;3.15;;;0.82;;
65558;SDS011;52203;51.998;5.140;2023-01-01T14:28:45;4.40;;;1.23;;
65558;SDS011;52203;51.998;5.140;2023-01-01T14:31:12;2.72;;;1.00;;
65558;SDS011;52203;51.998;5.140;2023-01-01T14:33:41;4.03;;;1.30;;
65558;SDS011;52203;51.998;5.140;2023-01-01T14:36:47;4.95;;;1.10;;
65558;SDS011;52203;51.998;5.140;2023-01-01T14:38:58;4.35;;;1.33;;
65558;SDS011;52203;51.998;5.140;2023-01-01T14:41:28;3.88;;;1.08;;
65558;SDS011;52203;51.998;5.140;2023-01-01T14:43:57;3.17;;;1.20;;
65558;SDS011;52203;51.998;5.140;2023-01-01T14:46:41;3.10;;;1.00;;
65558;SDS011;52203;51.998;5.140;2023-01-01T14:49:10;2.97;;;1.00;;
65558;SDS011;52203;51.998;5.140;2023-01-01T14:51:40;3.85;;;1.00;;
65558;SDS011;52203;51.998;5.140;2023-01-01T14:54:13;4.03;;;1.33;;
65558;SDS011;52203;51.998;5.140;2023-01-01T14:56:44;2.65;;;1.20;;
65558;SDS011;52203;51.998;5.140;2023-01-01T14:59:27;2.03;;;0.90;;
65558;SDS011;52203;51.998;5.140;2023-01-01T15:04:44;4.53;;;1.15;;
65558;SDS011;52203;51.998;5.140;2023-01-01T15:07:23;2.78;;;1.00;;
65558;SDS011;52203;51.998;5.140;2023-01-01T15:09:52;2.58;;;0.98;;
65558;SDS011;52203;51.998;5.140;2023-01-01T15:12:19;3.38;;;1.10;;
65558;SDS011;52203;51.998;5.140;2023-01-01T15:14:46;3.95;;;1.48;;
65558;SDS011;52203;51.998;5.140;2023-01-01T15:17:13;2.70;;;1.00;;
65558;SDS011;52203;51.998;5.140;2023-01-01T15:19:42;1.92;;;1.00;;
65558;SDS011;52203;51.998;5.140;2023-01-01T15:22:16;2.65;;;0.90;;
65558;SDS011;52203;51.998;5.140;2023-01-01T15:24:45;2.85;;;0.95;;
65558;SDS011;52203;51.998;5.140;2023-01-01T15:27:24;2.63;;;0.90;;
65558;SDS011;52203;51.998;5.140;2023-01-01T15:29:53;2.85;;;1.10;;
65558;SDS011;52203;51.998;5.140;2023-01-01T15:32:38;2.90;;;0.93;;
65558;SDS011;52203;51.998;5.140;2023-01-01T15:35:05;2.08;;;1.00;;
65558;SDS011;52203;51.998;5.140;2023-01-01T15:37:46;2.60;;;1.05;;
65558;SDS011;52203;51.998;5.140;2023-01-01T15:45:20;2.97;;;1.00;;
65558;SDS011;52203;51.998;5.140;2023-01-01T15:47:53;2.70;;;1.00;;
65558;SDS011;52203;51.998;5.140;2023-01-01T15:52:50;2.40;;;1.13;;
65558;SDS011;52203;51.998;5.140;2023-01-01T15:55:32;2.55;;;1.00;;
65558;SDS011;52203;51.998;5.140;2023-01-01T15:58:01;6.53;;;1.00;;
65558;SDS011;52203;51.998;5.140;2023-01-01T16:00:29;4.07;;;1.38;;
65558;SDS011;52203;51.998;5.140;2023-01-01T16:03:01;3.30;;;1.00;;
65558;SDS011;52203;51.998;5.140;2023-01-01T16:05:40;2.42;;;1.08;;
65558;SDS011;52203;51.998;5.140;2023-01-01T16:08:13;3.40;;;1.40;;
65558;SDS011;52203;51.998;5.140;2023-01-01T16:10:39;2.60;;;1.17;;
65558;SDS011;52203;51.998;5.140;2023-01-01T16:13:04;3.00;;;1.15;;
65558;SDS011;52203;51.998;5.140;2023-01-01T16:15:30;3.53;;;1.33;;
65558;SDS011;52203;51.998;5.140;2023-01-01T16:17:55;4.93;;;1.50;;
65558;SDS011;52203;51.998;5.140;2023-01-01T16:20:21;2.63;;;1.20;;
65558;SDS011;52203;51.998;5.140;2023-01-01T16:22:47;3.50;;;1.45;;
65558;SDS011;52203;51.998;5.140;2023-01-01T16:25:13;4.82;;;1.55;;
65558;SDS011;52203;51.998;5.140;2023-01-01T16:27:41;3.38;;;1.58;;
65558;SDS011;52203;51.998;5.140;2023-01-01T16:30:07;3.40;;;1.38;;
65558;SDS011;52203;51.998;5.140;2023-01-01T16:32:33;4.32;;;1.60;;
65558;SDS011;52203;51.998;5.140;2023-01-01T16:34:58;4.05;;;1.48;;
65558;SDS011;52203;51.998;5.140;2023-01-01T16:37:24;3.08;;;1.20;;
65558;SDS011;52203;51.998;5.140;2023-01-01T16:39:49;2.63;;;1.30;;
65558;SDS011;52203;51.998;5.140;2023-01-01T16:42:15;4.70;;;1.50;;
65558;SDS011;52203;51.998;5.140;2023-01-01T16:44:41;3.20;;;1.38;;
65558;SDS011;52203;51.998;5.140;2023-01-01T16:47:07;2.65;;;1.38;;
65558;SDS011;52203;51.998;5.140;2023-01-01T16:49:33;4.50;;;1.52;;
65558;SDS011;52203;51.998;5.140;2023-01-01T16:51:59;4.00;;;1.60;;
65558;SDS011;52203;51.998;5.140;2023-01-01T16:54:24;4.85;;;1.73;;
65558;SDS011;52203;51.998;5.140;2023-01-01T16:56:50;6.60;;;1.85;;
65558;SDS011;52203;51.998;5.140;2023-01-01T16:59:15;4.53;;;1.80;;
65558;SDS011;52203;51.998;5.140;2023-01-01T17:01:41;4.50;;;1.63;;
65558;SDS011;52203;51.998;5.140;2023-01-01T17:04:08;5.18;;;1.70;;
65558;SDS011;52203;51.998;5.140;2023-01-01T17:06:36;3.67;;;1.40;;
65558;SDS011;52203;51.998;5.140;2023-01-01T17:09:02;4.53;;;1.70;;
65558;SDS011;52203;51.998;5.140;2023-01-01T17:11:28;2.40;;;1.38;;
65558;SDS011;52203;51.998;5.140;2023-01-01T17:13:54;4.15;;;1.80;;
65558;SDS011;52203;51.998;5.140;2023-01-01T17:16:20;3.38;;;1.48;;
65558;SDS011;52203;51.998;5.140;2023-01-01T17:18:49;4.40;;;1.48;;
65558;SDS011;52203;51.998;5.140;2023-01-01T17:21:15;5.72;;;1.77;;